Time;durP1;ratioP1;P1;durP2;ratioP2;P2;SDS_P1;SDS_P2;PMS_P1;PMS_P2;Temp;Humidity;BMP_temperature;BMP_pressure;BME280_temperature;BME280_humidity;BME280_pressure;Samples;Min_cycle;Max_cycle;Signal;HPM_P1;HPM_P2
2022/05/07 00:00:28;;;;;;;;;;;6.10;99.90;;;;;;5051961;28;20394;-73
2022/05/07 00:02:54;;;;;;;;;;;6.10;99.90;;;;;;5051753;28;19909;-73
2022/05/07 00:05:20;;;;;;;;;;;5.90;99.90;;;;;;5051661;28;19909;-73
2022/05/07 00:07:46;;;;;;;;;;;5.90;99.90;;;;;;5051757;28;19975;-73
2022/05/07 00:10:12;;;;;;;;;;;5.90;99.90;;;;;;5051407;28;19913;-73
2022/05/07 00:12:37;;;;;;;;;;;5.90;99.90;;;;;;5056594;28;20039;-72
2022/05/07 00:15:03;;;;;;;;;;;5.90;99.90;;;;;;5050321;28;19937;-73
2022/05/07 00:20:13;;;;;;;;;;;5.70;99.90;;;;;;5052878;28;19977;-73
2022/05/07 00:22:38;;;;;;;;;;;5.60;99.90;;;;;;5052891;28;20381;-73
2022/05/07 00:25:04;;;;;;;;;;;5.60;99.90;;;;;;5066228;28;19915;-73
2022/05/07 00:27:29;;;;;;;;;;;5.50;99.90;;;;;;5056412;28;20419;-72
2022/05/07 00:29:55;;;;;;;;;;;5.50;99.90;;;;;;5059216;28;20352;-73
2022/05/07 00:32:20;;;;;;;;;;;5.60;99.90;;;;;;5055325;28;19908;-73
2022/05/07 00:34:46;;;;;;;;;;;5.60;99.90;;;;;;5055048;28;20277;-73
2022/05/07 00:37:11;;;;;;;;;;;5.50;99.90;;;;;;5055466;28;20000;-73
2022/05/07 00:39:37;;;;;;;;;;;5.40;99.90;;;;;;5055383;28;20255;-72
2022/05/07 00:42:03;;;;;;;;;;;5.40;99.90;;;;;;5055055;28;19909;-73
2022/05/07 00:44:28;;;;;;;;;;;5.50;99.90;;;;;;5072935;28;19913;-73
2022/05/07 00:46:56;;;;;;;;;;;5.40;99.90;;;;;;5071882;28;19920;-72
2022/05/07 00:49:21;;;;;;;;;;;5.40;99.90;;;;;;5055358;28;20365;-73
2022/05/07 00:51:47;;;;;;;;;;;5.30;99.90;;;;;;5055443;28;19909;-73
2022/05/07 00:54:12;;;;;;;;;;;5.30;99.90;;;;;;5054948;28;19909;-73
2022/05/07 00:56:38;;;;;;;;;;;5.30;99.90;;;;;;5056292;28;19912;-73
2022/05/07 00:59:04;;;;;;;;;;;5.30;99.90;;;;;;5054868;28;19909;-74
2022/05/07 01:01:30;;;;;;;;;;;5.30;99.90;;;;;;5056054;28;19909;-73
2022/05/07 01:03:55;;;;;;;;;;;5.40;99.90;;;;;;5055514;28;20461;-73
2022/05/07 01:06:21;;;;;;;;;;;5.30;99.90;;;;;;5055093;28;19909;-73
2022/05/07 01:08:48;;;;;;;;;;;5.20;99.90;;;;;;5054871;28;19996;-73
2022/05/07 01:11:15;;;;;;;;;;;5.10;99.90;;;;;;5054753;28;20007;-72
2022/05/07 01:13:41;;;;;;;;;;;4.90;99.90;;;;;;5054358;28;19995;-73
2022/05/07 01:16:06;;;;;;;;;;;5.00;99.90;;;;;;5054732;28;19909;-73
2022/05/07 01:18:31;;;;;;;;;;;5.10;99.90;;;;;;5054503;28;19931;-73
2022/05/07 01:20:58;;;;;;;;;;;5.00;99.90;;;;;;5054654;28;19963;-73
2022/05/07 01:23:24;;;;;;;;;;;5.00;99.90;;;;;;5054139;28;19909;-73
2022/05/07 01:25:50;;;;;;;;;;;5.00;99.90;;;;;;5054617;28;20336;-73
2022/05/07 01:28:15;;;;;;;;;;;5.00;99.90;;;;;;5054401;28;19916;-72
2022/05/07 01:30:41;;;;;;;;;;;5.00;99.90;;;;;;5060013;28;20514;-73
2022/05/07 01:33:06;;;;;;;;;;;5.00;99.90;;;;;;5053284;28;19917;-73
2022/05/07 01:35:32;;;;;;;;;;;5.10;99.90;;;;;;5053888;28;20007;-73
2022/05/07 01:37:57;;;;;;;;;;;4.90;99.90;;;;;;5054267;28;19924;-72
2022/05/07 01:40:22;;;;;;;;;;;4.90;99.90;;;;;;5054317;28;19909;-73
2022/05/07 01:42:48;;;;;;;;;;;4.80;99.90;;;;;;5053949;28;19913;-73
2022/05/07 01:45:13;;;;;;;;;;;4.90;99.90;;;;;;5053889;28;19909;-72
2022/05/07 01:50:24;;;;;;;;;;;4.90;99.90;;;;;;5054899;28;19970;-73
2022/05/07 01:52:49;;;;;;;;;;;4.80;99.90;;;;;;5053834;28;20007;-73
2022/05/07 01:55:15;;;;;;;;;;;4.70;99.90;;;;;;5053818;28;20186;-73
2022/05/07 01:57:40;;;;;;;;;;;4.70;99.90;;;;;;5055524;28;19917;-73
2022/05/07 02:00:06;;;;;;;;;;;4.70;99.90;;;;;;5058304;28;19909;-72
2022/05/07 02:02:32;;;;;;;;;;;4.70;99.90;;;;;;5056573;28;19924;-73
2022/05/07 02:04:57;;;;;;;;;;;4.60;99.90;;;;;;5060335;28;19919;-73
2022/05/07 02:07:23;;;;;;;;;;;4.60;99.90;;;;;;5071612;28;19966;-73
2022/05/07 02:09:48;;;;;;;;;;;4.60;99.90;;;;;;5072805;28;19920;-73
2022/05/07 02:12:14;;;;;;;;;;;4.60;99.90;;;;;;5072715;28;19908;-72
2022/05/07 02:14:39;;;;;;;;;;;4.50;99.90;;;;;;5072278;28;19908;-73
2022/05/07 02:17:05;;;;;;;;;;;4.40;99.90;;;;;;5072787;28;19951;-73
2022/05/07 02:19:30;;;;;;;;;;;4.40;99.90;;;;;;5055208;28;19909;-73
2022/05/07 02:21:56;;;;;;;;;;;4.40;99.90;;;;;;5053074;28;19916;-73
2022/05/07 02:24:21;;;;;;;;;;;4.50;99.90;;;;;;5072265;28;20011;-75
2022/05/07 02:26:47;;;;;;;;;;;4.50;99.90;;;;;;5072412;28;19916;-72
2022/05/07 02:29:14;;;;;;;;;;;4.40;99.90;;;;;;5072239;28;19960;-72
2022/05/07 02:31:40;;;;;;;;;;;4.40;99.90;;;;;;5072171;28;20429;-72
2022/05/07 02:34:05;;;;;;;;;;;4.40;99.90;;;;;;5071738;28;19995;-73
2022/05/07 02:36:32;;;;;;;;;;;4.40;99.90;;;;;;5072087;28;19915;-72
2022/05/07 02:38:58;;;;;;;;;;;4.30;99.90;;;;;;5070779;28;19994;-72
2022/05/07 02:44:08;;;;;;;;;;;4.10;99.90;;;;;;5068182;28;20029;-73
2022/05/07 02:46:34;;;;;;;;;;;4.20;99.90;;;;;;5052178;28;19948;-73
2022/05/07 02:49:00;;;;;;;;;;;4.20;99.90;;;;;;5052545;28;19917;-73
2022/05/07 02:51:25;;;;;;;;;;;4.20;99.90;;;;;;5052442;28;19909;-73
2022/05/07 02:53:51;;;;;;;;;;;4.10;99.90;;;;;;5052346;28;20358;-73
2022/05/07 02:56:16;;;;;;;;;;;4.10;99.90;;;;;;5051369;28;19924;-73
2022/05/07 02:58:42;;;;;;;;;;;4.10;99.90;;;;;;5052386;28;19912;-73
2022/05/07 03:01:07;;;;;;;;;;;4.20;99.90;;;;;;5052494;28;19956;-72
2022/05/07 03:03:33;;;;;;;;;;;4.30;99.90;;;;;;5051944;28;19909;-73
2022/05/07 03:05:59;;;;;;;;;;;4.30;99.90;;;;;;5052414;28;20259;-73
2022/05/07 03:08:25;;;;;;;;;;;4.30;99.90;;;;;;5052256;28;19913;-73
2022/05/07 03:10:50;;;;;;;;;;;4.30;99.90;;;;;;5052294;28;20023;-73
2022/05/07 03:13:16;;;;;;;;;;;4.20;99.90;;;;;;5052114;28;19909;-72
2022/05/07 03:15:42;;;;;;;;;;;4.10;99.90;;;;;;5055314;28;19915;-72
2022/05/07 03:18:07;;;;;;;;;;;4.10;99.90;;;;;;5054494;28;19909;-72
2022/05/07 03:20:33;;;;;;;;;;;4.10;99.90;;;;;;5052660;28;19923;-73
2022/05/07 03:22:58;;;;;;;;;;;4.10;99.90;;;;;;5052080;28;19964;-73
2022/05/07 03:25:24;;;;;;;;;;;4.00;99.90;;;;;;5052533;28;19909;-72
2022/05/07 03:27:49;;;;;;;;;;;4.00;99.90;;;;;;5051761;28;19917;-73
2022/05/07 03:30:15;;;;;;;;;;;4.10;99.90;;;;;;5052324;28;19913;-73
2022/05/07 03:32:40;;;;;;;;;;;3.90;99.90;;;;;;5051982;28;20270;-72
2022/05/07 03:35:06;;;;;;;;;;;3.90;99.90;;;;;;5051645;28;19909;-72
2022/05/07 03:37:31;;;;;;;;;;;3.80;99.90;;;;;;5052247;28;20391;-73
2022/05/07 03:39:57;;;;;;;;;;;3.90;99.90;;;;;;5052050;28;19909;-73
2022/05/07 03:42:22;;;;;;;;;;;3.90;99.90;;;;;;5051422;28;19915;-73
2022/05/07 03:44:48;;;;;;;;;;;3.80;99.90;;;;;;5051483;28;19919;-72
2022/05/07 03:47:13;;;;;;;;;;;3.70;99.90;;;;;;5060425;28;20365;-73
2022/05/07 03:49:39;;;;;;;;;;;3.80;99.90;;;;;;5056191;28;20358;-73
2022/05/07 03:54:49;;;;;;;;;;;3.80;99.90;;;;;;5051728;28;20011;-72
2022/05/07 03:57:16;;;;;;;;;;;3.80;99.90;;;;;;5053400;28;19991;-72
2022/05/07 03:59:42;;;;;;;;;;;3.90;99.90;;;;;;5056224;28;19909;-73
2022/05/07 04:02:07;;;;;;;;;;;4.00;99.90;;;;;;5055965;28;19996;-72
2022/05/07 04:04:33;;;;;;;;;;;3.90;99.90;;;;;;5055892;28;20008;-72
2022/05/07 04:06:59;;;;;;;;;;;3.90;99.90;;;;;;5056198;28;19990;-71
2022/05/07 04:09:24;;;;;;;;;;;4.00;99.90;;;;;;5055874;28;19963;-73
2022/05/07 04:11:50;;;;;;;;;;;4.10;99.90;;;;;;5055501;28;20000;-73
2022/05/07 04:14:15;;;;;;;;;;;3.90;99.90;;;;;;5055490;28;20370;-72
2022/05/07 04:16:41;;;;;;;;;;;3.70;99.90;;;;;;5055629;28;20278;-72
2022/05/07 04:19:06;;;;;;;;;;;3.70;99.90;;;;;;5055603;28;19916;-72
2022/05/07 04:21:34;;;;;;;;;;;3.70;99.90;;;;;;5055425;28;19909;-72
2022/05/07 04:23:59;;;;;;;;;;;3.70;99.90;;;;;;5054925;28;19920;-72
2022/05/07 04:26:25;;;;;;;;;;;3.80;99.90;;;;;;5055260;28;20289;-72
2022/05/07 04:28:50;;;;;;;;;;;3.80;99.90;;;;;;5048821;28;19916;-73
2022/05/07 04:31:18;;;;;;;;;;;4.00;99.90;;;;;;5055206;28;19909;-73
2022/05/07 04:33:44;;;;;;;;;;;4.10;99.90;;;;;;5074100;28;20330;-73
2022/05/07 04:36:10;;;;;;;;;;;4.00;99.90;;;;;;5074757;28;19978;-73
2022/05/07 04:38:35;;;;;;;;;;;4.10;99.90;;;;;;5067427;28;20363;-73
2022/05/07 04:41:01;;;;;;;;;;;4.20;99.90;;;;;;5054951;28;19909;-72
2022/05/07 04:43:26;;;;;;;;;;;4.20;99.90;;;;;;5054017;28;20383;-73
2022/05/07 04:45:52;;;;;;;;;;;4.20;99.90;;;;;;5055900;28;19917;-72
2022/05/07 04:48:17;;;;;;;;;;;4.10;99.90;;;;;;5072773;28;20454;-72
2022/05/07 04:50:43;;;;;;;;;;;4.20;99.90;;;;;;5054990;28;19920;-73
2022/05/07 04:53:08;;;;;;;;;;;4.20;99.90;;;;;;5054208;28;19916;-73
2022/05/07 04:55:35;;;;;;;;;;;4.30;99.90;;;;;;5055067;28;19916;-72
2022/05/07 04:58:00;;;;;;;;;;;4.40;99.90;;;;;;5054668;28;19916;-73
2022/05/07 05:00:25;;;;;;;;;;;4.50;99.90;;;;;;5054811;28;19997;-73
2022/05/07 05:02:51;;;;;;;;;;;4.80;99.90;;;;;;5070819;28;20258;-73
2022/05/07 05:05:16;;;;;;;;;;;5.00;99.90;;;;;;5069775;28;19909;-73
2022/05/07 05:07:43;;;;;;;;;;;4.90;99.90;;;;;;5052493;28;19917;-71
2022/05/07 05:10:08;;;;;;;;;;;5.00;99.90;;;;;;5053592;28;20273;-72
2022/05/07 05:12:34;;;;;;;;;;;5.10;99.90;;;;;;5053579;28;19915;-72
2022/05/07 05:15:04;;;;;;;;;;;5.20;99.90;;;;;;5058893;28;19959;-73
2022/05/07 05:17:32;;;;;;;;;;;5.30;99.90;;;;;;5054524;28;20327;-73
2022/05/07 05:19:59;;;;;;;;;;;5.50;99.90;;;;;;5051909;28;19913;-73
2022/05/07 05:22:24;;;;;;;;;;;5.70;99.90;;;;;;5053858;28;20105;-73
2022/05/07 05:24:50;;;;;;;;;;;6.00;99.90;;;;;;5053592;28;19909;-73
2022/05/07 05:27:15;;;;;;;;;;;6.10;99.90;;;;;;5053861;28;20262;-73
2022/05/07 05:29:41;;;;;;;;;;;6.10;99.90;;;;;;5053872;28;19959;-72
2022/05/07 05:32:07;;;;;;;;;;;6.40;99.90;;;;;;5053743;28;19909;-73
2022/05/07 05:34:32;;;;;;;;;;;6.60;99.90;;;;;;5053619;28;19991;-73
2022/05/07 05:36:58;;;;;;;;;;;6.60;99.90;;;;;;5052451;28;20361;-73
2022/05/07 05:39:23;;;;;;;;;;;6.50;99.90;;;;;;5053520;28;19991;-73
2022/05/07 05:41:49;;;;;;;;;;;6.60;99.90;;;;;;5052979;28;19908;-72
2022/05/07 05:44:14;;;;;;;;;;;6.60;99.90;;;;;;5053236;28;19919;-73
2022/05/07 05:46:40;;;;;;;;;;;6.70;99.90;;;;;;5053556;28;19908;-73
2022/05/07 05:49:05;;;;;;;;;;;6.80;99.90;;;;;;5046294;28;19917;-73
2022/05/07 05:51:31;;;;;;;;;;;7.10;99.90;;;;;;5072583;28;19920;-73
2022/05/07 05:53:56;;;;;;;;;;;7.40;99.90;;;;;;5071057;28;19954;-73
2022/05/07 05:56:22;;;;;;;;;;;7.60;99.90;;;;;;5053553;28;20321;-72
2022/05/07 05:58:47;;;;;;;;;;;7.80;99.90;;;;;;5053510;28;20386;-72
2022/05/07 06:01:13;;;;;;;;;;;8.00;99.90;;;;;;5053328;28;19909;-73
2022/05/07 06:03:39;;;;;;;;;;;8.20;99.90;;;;;;5052403;28;20369;-73
2022/05/07 06:06:04;;;;;;;;;;;8.50;99.90;;;;;;5053013;28;19970;-73
2022/05/07 06:08:30;;;;;;;;;;;8.50;99.90;;;;;;5053159;28;19936;-73
2022/05/07 06:10:57;;;;;;;;;;;8.60;99.90;;;;;;5053027;28;20400;-72
2022/05/07 06:13:23;;;;;;;;;;;8.70;99.90;;;;;;5052800;28;19909;-73
2022/05/07 06:15:51;;;;;;;;;;;8.90;99.90;;;;;;5053100;28;19913;-72
2022/05/07 06:18:20;;;;;;;;;;;9.20;99.90;;;;;;5053138;28;19909;-73
2022/05/07 06:20:45;;;;;;;;;;;9.30;99.90;;;;;;5052522;28;19912;-73
2022/05/07 06:23:11;;;;;;;;;;;9.40;99.90;;;;;;5052242;28;19909;-73
2022/05/07 06:28:22;;;;;;;;;;;9.80;99.90;;;;;;5052324;28;20027;-73
2022/05/07 06:30:48;;;;;;;;;;;10.10;99.90;;;;;;5064741;28;20369;-72
2022/05/07 06:33:14;;;;;;;;;;;10.40;99.90;;;;;;5063262;28;19920;-73
2022/05/07 06:35:39;;;;;;;;;;;10.60;99.90;;;;;;5051762;28;19908;-73
2022/05/07 06:38:05;;;;;;;;;;;10.60;99.90;;;;;;5052540;28;19909;-72
2022/05/07 06:40:30;;;;;;;;;;;10.70;99.90;;;;;;5053003;28;19909;-73
2022/05/07 06:42:56;;;;;;;;;;;10.90;99.90;;;;;;5052112;28;19951;-73
2022/05/07 06:45:21;;;;;;;;;;;11.20;99.90;;;;;;5052402;28;19963;-73
2022/05/07 06:47:47;;;;;;;;;;;11.30;99.90;;;;;;5050920;28;19960;-73
2022/05/07 06:50:12;;;;;;;;;;;11.30;99.90;;;;;;5051914;28;19967;-75
2022/05/07 06:52:42;;;;;;;;;;;11.60;99.90;;;;;;5051834;28;19919;-73
2022/05/07 06:55:08;;;;;;;;;;;11.90;99.90;;;;;;5052004;28;19932;-73
2022/05/07 06:57:33;;;;;;;;;;;12.20;99.90;;;;;;5052656;28;20358;-73
2022/05/07 06:59:59;;;;;;;;;;;13.20;99.90;;;;;;5052017;28;19915;-75
2022/05/07 07:02:25;;;;;;;;;;;14.50;99.90;;;;;;5052030;28;19970;-74
2022/05/07 07:04:50;;;;;;;;;;;15.20;99.90;;;;;;5052545;28;19909;-73
2022/05/07 07:07:17;;;;;;;;;;;15.70;99.90;;;;;;5052282;28;20291;-73
2022/05/07 07:09:43;;;;;;;;;;;16.30;99.90;;;;;;5052685;28;19951;-73
2022/05/07 07:12:10;;;;;;;;;;;16.90;99.90;;;;;;5052342;28;19959;-73
2022/05/07 07:14:35;;;;;;;;;;;17.40;96.70;;;;;;5055050;28;19909;-74
2022/05/07 07:17:01;;;;;;;;;;;17.70;97.40;;;;;;5057784;28;20032;-73
2022/05/07 07:19:26;;;;;;;;;;;17.40;97.50;;;;;;5052452;28;20369;-73
2022/05/07 07:21:53;;;;;;;;;;;17.80;95.30;;;;;;5051980;28;19913;-73
2022/05/07 07:24:19;;;;;;;;;;;17.80;95.30;;;;;;5051931;28;20346;-74
2022/05/07 07:26:45;;;;;;;;;;;18.30;95.30;;;;;;5051867;28;19913;-73
2022/05/07 07:29:10;;;;;;;;;;;18.30;93.70;;;;;;5052020;28;20366;-74
2022/05/07 07:31:36;;;;;;;;;;;18.60;92.30;;;;;;5051202;28;19922;-74
2022/05/07 07:34:02;;;;;;;;;;;18.40;92.10;;;;;;5051805;28;19908;-74
2022/05/07 07:36:27;;;;;;;;;;;18.90;93.10;;;;;;5052101;28;19915;-75
2022/05/07 07:38:53;;;;;;;;;;;18.70;92.20;;;;;;5051941;28;19909;-74
2022/05/07 07:41:18;;;;;;;;;;;18.50;91.70;;;;;;5064964;28;20030;-74
2022/05/07 07:43:44;;;;;;;;;;;19.40;91.30;;;;;;5065959;28;19963;-74
2022/05/07 07:48:54;;;;;;;;;;;19.80;90.90;;;;;;5051462;28;20320;-74
2022/05/07 07:51:20;;;;;;;;;;;19.80;89.80;;;;;;5051592;28;20015;-72
2022/05/07 07:53:45;;;;;;;;;;;20.00;90.90;;;;;;5051715;28;19987;-72
2022/05/07 07:56:12;;;;;;;;;;;20.30;85.70;;;;;;5052050;28;19915;-73
2022/05/07 07:58:37;;;;;;;;;;;20.60;89.10;;;;;;5051963;28;19909;-73
2022/05/07 08:01:03;;;;;;;;;;;20.40;90.00;;;;;;5052214;28;19916;-73
2022/05/07 08:03:29;;;;;;;;;;;20.10;88.40;;;;;;5053021;28;19988;-73
2022/05/07 08:05:55;;;;;;;;;;;20.40;89.50;;;;;;5052364;28;19999;-74
2022/05/07 08:13:53;;;;;;;;;;;21.50;86.50;;;;;;5051676;28;19931;-73
2022/05/07 08:16:18;;;;;;;;;;;21.70;85.60;;;;;;5051917;28;19913;-74
2022/05/07 08:18:44;;;;;;;;;;;21.50;85.60;;;;;;5051823;28;19913;-74
2022/05/07 08:21:10;;;;;;;;;;;22.30;82.50;;;;;;5054865;28;20323;-73
2022/05/07 08:23:36;;;;;;;;;;;22.40;86.70;;;;;;5050459;28;19909;-73
2022/05/07 08:26:04;;;;;;;;;;;22.60;78.70;;;;;;5053664;28;19939;-73
2022/05/07 08:28:30;;;;;;;;;;;22.70;81.40;;;;;;5051659;28;19916;-73
2022/05/07 08:30:55;;;;;;;;;;;23.00;79.50;;;;;;5051600;28;19909;-73
2022/05/07 08:33:21;;;;;;;;;;;22.00;82.20;;;;;;5051678;28;20364;-73
2022/05/07 08:35:46;;;;;;;;;;;22.60;83.50;;;;;;5051228;28;19992;-73
2022/05/07 08:38:12;;;;;;;;;;;22.50;83.70;;;;;;5051272;28;20258;-74
2022/05/07 08:40:41;;;;;;;;;;;23.20;79.30;;;;;;5050333;28;19924;-74
2022/05/07 08:43:06;;;;;;;;;;;23.40;81.80;;;;;;5050625;28;19909;-73
2022/05/07 08:45:32;;;;;;;;;;;23.10;73.80;;;;;;5054710;28;19966;-73
2022/05/07 08:47:59;;;;;;;;;;;22.50;76.70;;;;;;5055239;28;19923;-73
2022/05/07 08:50:24;;;;;;;;;;;23.30;79.70;;;;;;5054890;28;19999;-73
2022/05/07 08:52:49;;;;;;;;;;;23.30;75.70;;;;;;5058846;28;19952;-74
2022/05/07 08:55:19;;;;;;;;;;;24.00;77.80;;;;;;5054745;28;19959;-73
2022/05/07 08:57:45;;;;;;;;;;;24.70;76.00;;;;;;5055088;28;20051;-73
2022/05/07 09:00:11;;;;;;;;;;;23.90;72.90;;;;;;5054867;28;20362;-73
2022/05/07 09:02:42;;;;;;;;;;;23.50;79.00;;;;;;5054540;28;19915;-73
2022/05/07 09:05:09;;;;;;;;;;;24.40;72.40;;;;;;5053188;28;19909;-73
2022/05/07 09:07:35;;;;;;;;;;;24.00;70.30;;;;;;5054796;28;19938;-73
2022/05/07 09:10:00;;;;;;;;;;;24.30;68.90;;;;;;5054838;28;20348;-72
2022/05/07 09:12:28;;;;;;;;;;;24.20;71.00;;;;;;5054539;28;19909;-73
2022/05/07 09:15:01;;;;;;;;;;;25.10;72.70;;;;;;5054382;28;19909;-72
2022/05/07 09:17:26;;;;;;;;;;;24.50;64.20;;;;;;5054664;28;19909;-73
2022/05/07 09:19:52;;;;;;;;;;;24.80;67.80;;;;;;5056311;28;19931;-72
2022/05/07 09:22:17;;;;;;;;;;;22.70;70.10;;;;;;5054410;28;20293;-72
2022/05/07 09:24:52;;;;;;;;;;;24.60;70.80;;;;;;5054272;28;19908;-73
2022/05/07 09:27:18;;;;;;;;;;;21.80;70.10;;;;;;5054498;28;19943;-72
2022/05/07 09:29:43;;;;;;;;;;;21.60;70.20;;;;;;5049615;28;19912;-72
2022/05/07 09:32:10;;;;;;;;;;;22.00;66.90;;;;;;5054235;28;20366;-72
2022/05/07 09:37:36;;;;;;;;;;;21.40;68.90;;;;;;5054396;28;19916;-73
2022/05/07 09:40:03;;;;;;;;;;;21.10;72.50;;;;;;5054189;28;19908;-73
2022/05/07 09:42:30;;;;;;;;;;;20.30;70.40;;;;;;5053426;28;19917;-72
2022/05/07 09:44:56;;;;;;;;;;;18.80;69.80;;;;;;5073104;28;19909;-73
2022/05/07 09:47:22;;;;;;;;;;;18.80;73.10;;;;;;5073039;28;19956;-73
2022/05/07 09:52:31;;;;;;;;;;;19.80;73.40;;;;;;5052451;28;20003;-74
2022/05/07 09:57:42;;;;;;;;;;;19.20;75.00;;;;;;5054011;28;19954;-73
2022/05/07 10:00:13;;;;;;;;;;;21.20;71.20;;;;;;5053612;28;20336;-73
2022/05/07 10:02:48;;;;;;;;;;;19.80;69.60;;;;;;5053410;28;20374;-72
2022/05/07 10:05:34;;;;;;;;;;;18.90;69.40;;;;;;5053196;28;19963;-74
2022/05/07 10:08:06;;;;;;;;;;;18.60;68.60;;;;;;5047895;28;20025;-73
2022/05/07 10:10:35;;;;;;;;;;;18.70;70.10;;;;;;5053614;28;20286;-73
2022/05/07 10:13:02;;;;;;;;;;;21.30;74.40;;;;;;5053434;28;19908;-73
2022/05/07 10:15:27;;;;;;;;;;;24.40;67.80;;;;;;5053226;28;19909;-73
2022/05/07 10:18:01;;;;;;;;;;;24.50;62.10;;;;;;5053505;28;19916;-73
2022/05/07 10:20:33;;;;;;;;;;;22.10;62.50;;;;;;5053196;28;19912;-73
2022/05/07 10:22:58;;;;;;;;;;;20.00;65.50;;;;;;5053217;28;19912;-73
2022/05/07 10:25:24;;;;;;;;;;;19.30;69.10;;;;;;5053119;28;19920;-74
2022/05/07 10:27:49;;;;;;;;;;;20.20;67.10;;;;;;5053152;28;19913;-73
2022/05/07 10:30:16;;;;;;;;;;;21.50;62.20;;;;;;5053287;28;19909;-74
2022/05/07 10:32:58;;;;;;;;;;;23.60;66.20;;;;;;5052582;28;20332;-73
2022/05/07 10:35:42;;;;;;;;;;;23.30;62.10;;;;;;5057593;28;19952;-73
2022/05/07 10:38:10;;;;;;;;;;;23.20;62.40;;;;;;5055095;28;20350;-73
2022/05/07 10:40:36;;;;;;;;;;;24.00;60.20;;;;;;5072296;28;19930;-74
2022/05/07 10:43:03;;;;;;;;;;;24.90;57.40;;;;;;5071803;28;20409;-74
2022/05/07 10:45:41;;;;;;;;;;;24.90;63.40;;;;;;5054107;28;20320;-74
2022/05/07 10:48:19;;;;;;;;;;;25.10;62.80;;;;;;5047721;28;19919;-73
2022/05/07 10:50:51;;;;;;;;;;;23.40;55.80;;;;;;5052279;28;20336;-74
2022/05/07 10:53:17;;;;;;;;;;;21.40;61.10;;;;;;5051930;28;20008;-73
2022/05/07 10:55:42;;;;;;;;;;;20.50;62.40;;;;;;5052678;28;19940;-74
2022/05/07 10:58:08;;;;;;;;;;;20.20;64.90;;;;;;5052613;28;19909;-73
2022/05/07 11:00:34;;;;;;;;;;;20.10;67.60;;;;;;5052832;28;19948;-73
2022/05/07 11:03:00;;;;;;;;;;;20.60;67.10;;;;;;5052342;28;19935;-73
2022/05/07 11:05:32;;;;;;;;;;;20.50;63.40;;;;;;5052410;28;19916;-73
2022/05/07 11:07:58;;;;;;;;;;;20.30;64.40;;;;;;5052251;28;19913;-74
2022/05/07 11:10:24;;;;;;;;;;;21.30;61.00;;;;;;5052259;28;19916;-72
2022/05/07 11:12:50;;;;;;;;;;;21.60;60.60;;;;;;5052322;28;20297;-72
2022/05/07 11:15:22;;;;;;;;;;;20.70;60.70;;;;;;5052203;28;20377;-73
2022/05/07 11:17:47;;;;;;;;;;;21.70;61.30;;;;;;5052289;28;20286;-73
2022/05/07 11:20:13;;;;;;;;;;;22.50;64.00;;;;;;5052370;28;19909;-72
2022/05/07 11:22:40;;;;;;;;;;;21.20;61.70;;;;;;5055935;28;19920;-72
2022/05/07 11:25:05;;;;;;;;;;;20.80;62.00;;;;;;5051987;28;19944;-73
2022/05/07 11:27:32;;;;;;;;;;;20.40;70.90;;;;;;5052265;28;19955;-73
2022/05/07 11:29:59;;;;;;;;;;;20.60;62.90;;;;;;5052189;28;19916;-73
2022/05/07 11:32:34;;;;;;;;;;;20.10;59.50;;;;;;5051914;28;19908;-73
2022/05/07 11:35:00;;;;;;;;;;;19.60;61.30;;;;;;5051852;28;20016;-73
2022/05/07 11:37:25;;;;;;;;;;;19.20;66.20;;;;;;5052368;28;20109;-73
2022/05/07 11:39:53;;;;;;;;;;;19.10;66.80;;;;;;5051662;28;19919;-73
2022/05/07 11:42:32;;;;;;;;;;;19.00;66.60;;;;;;5055593;28;19999;-73
2022/05/07 11:47:50;;;;;;;;;;;19.60;69.40;;;;;;5052019;28;19919;-73
2022/05/07 11:50:20;;;;;;;;;;;20.30;69.20;;;;;;5051906;28;19923;-73
2022/05/07 11:52:46;;;;;;;;;;;20.80;65.10;;;;;;5051701;28;19916;-73
2022/05/07 11:55:11;;;;;;;;;;;20.50;66.80;;;;;;5051716;28;19916;-73
2022/05/07 11:57:37;;;;;;;;;;;20.90;63.20;;;;;;5051892;28;19909;-73
2022/05/07 12:00:15;;;;;;;;;;;21.70;66.80;;;;;;5045164;28;20004;-73
2022/05/07 12:02:51;;;;;;;;;;;22.20;65.00;;;;;;5051666;28;19909;-73
2022/05/07 12:05:17;;;;;;;;;;;22.00;63.00;;;;;;5051416;28;19954;-73
2022/05/07 12:07:47;;;;;;;;;;;21.00;65.50;;;;;;5051659;28;19916;-73
2022/05/07 12:10:12;;;;;;;;;;;22.30;63.50;;;;;;5051811;28;19909;-73
2022/05/07 12:12:38;;;;;;;;;;;22.20;63.40;;;;;;5051382;28;19909;-74
2022/05/07 12:15:04;;;;;;;;;;;22.70;60.10;;;;;;5051126;28;19932;-73
2022/05/07 12:20:13;;;;;;;;;;;23.60;59.00;;;;;;5055887;28;19916;-73
2022/05/07 12:31:02;;;;;;;;;;;21.30;62.40;;;;;;5032874;28;19971;-73
2022/05/07 12:33:28;;;;;;;;;;;20.40;63.30;;;;;;5053354;28;20085;-73
2022/05/07 12:35:54;;;;;;;;;;;25.10;57.40;;;;;;5055282;28;19909;-73
2022/05/07 12:38:20;;;;;;;;;;;27.40;55.20;;;;;;5055273;28;19909;-73
2022/05/07 12:40:45;;;;;;;;;;;29.40;50.70;;;;;;5055331;28;19913;-73
2022/05/07 12:43:10;;;;;;;;;;;30.30;46.50;;;;;;5054190;28;19909;-73
2022/05/07 12:45:36;;;;;;;;;;;26.50;50.40;;;;;;5063316;28;19908;-73
2022/05/07 12:48:02;;;;;;;;;;;25.30;55.60;;;;;;5055036;28;19959;-73
2022/05/07 12:50:27;;;;;;;;;;;25.10;51.20;;;;;;5054881;28;20011;-73
2022/05/07 12:52:54;;;;;;;;;;;26.10;53.40;;;;;;5054701;28;19952;-73
2022/05/07 12:55:19;;;;;;;;;;;24.50;54.50;;;;;;5053541;28;19920;-73
2022/05/07 12:57:45;;;;;;;;;;;22.50;58.20;;;;;;5055111;28;19913;-73
2022/05/07 13:00:11;;;;;;;;;;;22.20;57.60;;;;;;5054070;28;19991;-73
2022/05/07 13:02:37;;;;;;;;;;;23.40;56.00;;;;;;5054889;28;19963;-73
2022/05/07 13:05:03;;;;;;;;;;;24.30;54.10;;;;;;5054598;28;19915;-73
2022/05/07 13:07:29;;;;;;;;;;;23.50;54.10;;;;;;5054810;28;20372;-72
2022/05/07 13:09:54;;;;;;;;;;;22.60;59.30;;;;;;5055080;28;19948;-73
2022/05/07 13:12:23;;;;;;;;;;;22.10;55.20;;;;;;5054546;28;19935;-72
2022/05/07 13:14:48;;;;;;;;;;;23.10;55.10;;;;;;5069123;28;19992;-72
2022/05/07 13:17:15;;;;;;;;;;;23.80;55.50;;;;;;5073695;28;19999;-73
2022/05/07 13:19:41;;;;;;;;;;;25.80;52.30;;;;;;5073830;28;19912;-73
2022/05/07 13:22:06;;;;;;;;;;;27.70;48.20;;;;;;5073581;28;20426;-73
2022/05/07 13:24:32;;;;;;;;;;;27.70;46.80;;;;;;5073596;28;19909;-73
2022/05/07 13:26:57;;;;;;;;;;;27.00;47.50;;;;;;5073725;28;19913;-73
2022/05/07 13:29:23;;;;;;;;;;;26.80;48.70;;;;;;5064160;28;19909;-73
2022/05/07 13:31:48;;;;;;;;;;;25.50;50.70;;;;;;5053756;28;19920;-72
2022/05/07 13:34:14;;;;;;;;;;;25.80;50.70;;;;;;5054066;28;19994;-73
2022/05/07 13:36:39;;;;;;;;;;;24.50;50.10;;;;;;5073714;28;20329;-73
2022/05/07 13:39:05;;;;;;;;;;;24.40;55.30;;;;;;5073683;28;19909;-73
2022/05/07 13:41:30;;;;;;;;;;;24.90;49.80;;;;;;5073212;28;19908;-73
2022/05/07 13:43:56;;;;;;;;;;;27.30;47.70;;;;;;5073153;28;19912;-73
2022/05/07 13:46:22;;;;;;;;;;;27.50;49.20;;;;;;5073154;28;19959;-73
2022/05/07 13:48:47;;;;;;;;;;;26.40;48.90;;;;;;5073165;28;20361;-73
2022/05/07 13:51:13;;;;;;;;;;;26.10;49.30;;;;;;5073180;28;19908;-73
2022/05/07 13:53:39;;;;;;;;;;;25.10;52.90;;;;;;5072823;28;19912;-73
2022/05/07 13:56:04;;;;;;;;;;;26.70;48.00;;;;;;5073075;28;20056;-73
2022/05/07 13:58:30;;;;;;;;;;;27.30;46.90;;;;;;5071408;28;19943;-74
2022/05/07 14:00:55;;;;;;;;;;;29.00;45.90;;;;;;5051069;28;19962;-73
2022/05/07 14:03:23;;;;;;;;;;;28.40;42.80;;;;;;5053476;28;19909;-73
2022/05/07 14:05:49;;;;;;;;;;;27.50;46.10;;;;;;5053226;28;19915;-73
2022/05/07 14:08:14;;;;;;;;;;;27.10;47.40;;;;;;5053432;28;20294;-74
2022/05/07 14:10:42;;;;;;;;;;;28.00;46.90;;;;;;5053466;28;19909;-74
2022/05/07 14:13:08;;;;;;;;;;;27.60;49.00;;;;;;5053105;28;19916;-73
2022/05/07 14:15:34;;;;;;;;;;;23.80;56.00;;;;;;5053298;28;19908;-73
2022/05/07 14:17:59;;;;;;;;;;;21.60;58.20;;;;;;5053571;28;19912;-73
2022/05/07 14:20:25;;;;;;;;;;;20.70;59.20;;;;;;5053755;28;20366;-73
2022/05/07 14:22:51;;;;;;;;;;;20.10;58.50;;;;;;5056901;28;19955;-73
2022/05/07 14:25:16;;;;;;;;;;;20.30;59.60;;;;;;5053384;28;20278;-73
2022/05/07 14:27:41;;;;;;;;;;;25.10;55.80;;;;;;5053153;28;20362;-74
2022/05/07 14:30:08;;;;;;;;;;;27.60;48.40;;;;;;5053053;28;20366;-74
2022/05/07 14:32:33;;;;;;;;;;;29.00;51.10;;;;;;5052909;28;19992;-74
2022/05/07 14:34:59;;;;;;;;;;;28.20;45.20;;;;;;5052974;28;20353;-74
2022/05/07 14:37:25;;;;;;;;;;;26.50;53.50;;;;;;5053004;28;19909;-73
2022/05/07 14:39:50;;;;;;;;;;;27.20;47.60;;;;;;5052279;28;19909;-73
2022/05/07 14:42:18;;;;;;;;;;;24.10;52.40;;;;;;5054088;28;19909;-73
2022/05/07 14:44:43;;;;;;;;;;;21.50;56.60;;;;;;5052515;28;19909;-73
2022/05/07 14:47:09;;;;;;;;;;;20.80;58.90;;;;;;5052964;28;19923;-73
2022/05/07 14:49:34;;;;;;;;;;;20.30;61.00;;;;;;5051604;28;19916;-73
2022/05/07 14:52:00;;;;;;;;;;;20.40;65.10;;;;;;5052447;28;19916;-73
2022/05/07 14:54:26;;;;;;;;;;;20.40;63.70;;;;;;5051881;28;19920;-73
2022/05/07 14:56:51;;;;;;;;;;;19.80;62.20;;;;;;5052443;28;20333;-73
2022/05/07 14:59:17;;;;;;;;;;;19.50;60.60;;;;;;5052470;28;19909;-73
2022/05/07 15:01:43;;;;;;;;;;;19.80;62.30;;;;;;5052353;28;19909;-73